»·PEaware :: WAT540 KPRC-KSBD

WAT540 :: KPRC-KSBD

FLIGHT INFORMATION

Flight Status: Arrived
Operator:
Walker Air Transport
More flights by this operator :: More flights under this callsign
Pilot: Michael R. (33632)
Aircraft: GRUMMAN AERO AA5 CHEETAH TIGER
(AA5)
More flights by this aircraft type
Origin: KPRC Love
United States
Destination: KSBD San Bernardino Intl
United States
More flights between these airports :: More routes between these airports
Route: HIDAT TASGE CADEZ ZEDAB DEWAY SCBBY
File this flight plan on PilotEdge
Remarks:
Altitude:
(Current/Filed)
8,500ft
Speed:
(Current/Filed)
130kts
Departed: 08-Feb-21 01:24 AM
Arrived: 08-Feb-21 03:16 AM
Distance/Time
Traveled:
240nm/1:52
Distance/Time
To Go:
Arrived

Flight Plot

Page will automatically refresh every two minutes.

Flight plan parsing failed; only flown route is shown


Map Options




Map Legend


Flown Route
Filed Route
Departure Airport
Arrival Airport
Navaid (VOR, NDB)
Fix

Horizontal Profiles

Position Reports

Time Latitude Longitude Heading Altitude Ground
Speed
08-Feb-21 00:55 34.649903 -112.426909 136 5013ft 0kts
08-Feb-21 00:56 34.649903 -112.426909 136 5013ft 0kts
08-Feb-21 00:57 34.649903 -112.426909 136 5013ft 0kts
08-Feb-21 00:58 34.649903 -112.426909 136 5013ft 0kts
08-Feb-21 00:59 34.649903 -112.426909 136 5013ft 0kts
08-Feb-21 01:00 34.649903 -112.426909 136 5013ft 0kts
08-Feb-21 01:01 34.649903 -112.426909 136 5013ft 0kts
08-Feb-21 01:02 34.649903 -112.426909 136 5013ft 0kts
08-Feb-21 01:03 34.649903 -112.426909 136 5013ft 0kts
08-Feb-21 01:04 34.649903 -112.426909 136 5013ft 0kts
08-Feb-21 01:05 34.649903 -112.426909 136 5013ft 0kts
08-Feb-21 01:06 34.649903 -112.426909 136 5013ft 0kts
08-Feb-21 01:07 34.649903 -112.426909 136 5013ft 0kts
08-Feb-21 01:08 34.649903 -112.426909 136 5013ft 0kts
08-Feb-21 01:09 34.649903 -112.426909 136 5013ft 0kts
08-Feb-21 01:10 34.649903 -112.426909 136 5013ft 0kts
08-Feb-21 01:11 34.649903 -112.426909 136 5013ft 0kts
08-Feb-21 01:12 34.649903 -112.426909 136 5013ft 0kts
08-Feb-21 01:13 34.649903 -112.426909 136 5013ft 0kts
08-Feb-21 01:14 34.649903 -112.426909 136 5013ft 0kts
08-Feb-21 01:15 34.649903 -112.426909 136 5013ft 0kts
08-Feb-21 01:16 34.649903 -112.426909 136 5013ft 0kts
08-Feb-21 01:17 34.649903 -112.426909 136 5013ft 0kts
08-Feb-21 01:18 34.649903 -112.426909 136 5013ft 0kts
08-Feb-21 01:19 34.650625 -112.425055 39 5006ft 17kts
08-Feb-21 01:20 34.655306 -112.420010 36 4983ft 26kts
08-Feb-21 01:21 34.661913 -112.413174 19 4945ft 19kts
08-Feb-21 01:22 34.662652 -112.412077 129 4942ft 0kts
08-Feb-21 01:23 34.655429 -112.418184 236 5052ft 75kts
08-Feb-21 01:24 34.641088 -112.439049 283 5717ft 62kts
08-Feb-21 01:25 34.645454 -112.463650 281 6295ft 79kts
08-Feb-21 01:26 34.642673 -112.495222 272 7002ft 83kts
08-Feb-21 01:27 34.637959 -112.527007 271 7682ft 83kts
08-Feb-21 01:28 34.632979 -112.559153 270 8244ft 88kts
08-Feb-21 01:29 34.627059 -112.597249 267 8502ft 118kts
08-Feb-21 01:30 34.619623 -112.644129 267 8496ft 128kts
08-Feb-21 01:31 34.611653 -112.694690 266 8498ft 130kts
08-Feb-21 01:32 34.603913 -112.743714 266 8498ft 130kts
08-Feb-21 01:33 34.596395 -112.791219 266 8498ft 130kts
08-Feb-21 01:34 34.588845 -112.838800 266 8498ft 130kts
08-Feb-21 01:35 34.581629 -112.886970 266 8498ft 130kts
08-Feb-21 01:36 34.573793 -112.936243 266 8498ft 130kts
08-Feb-21 01:37 34.565987 -112.986870 268 8497ft 130kts
08-Feb-21 01:38 34.559767 -113.036502 268 8497ft 130kts
08-Feb-21 01:39 34.553402 -113.086457 268 8497ft 130kts
08-Feb-21 01:40 34.547114 -113.135242 268 8497ft 130kts
08-Feb-21 01:41 34.540983 -113.182581 268 8497ft 130kts
08-Feb-21 01:42 34.534684 -113.231051 268 8497ft 130kts
08-Feb-21 01:43 34.528344 -113.279681 268 8497ft 130kts
08-Feb-21 01:44 34.521981 -113.328332 268 8497ft 130kts
08-Feb-21 01:45 34.515631 -113.376729 268 8497ft 130kts
08-Feb-21 01:46 34.509264 -113.425107 268 8497ft 130kts
08-Feb-21 01:47 34.502885 -113.473421 268 8497ft 130kts
08-Feb-21 01:48 34.496597 -113.520897 268 8497ft 130kts
08-Feb-21 01:49 34.490251 -113.568666 268 8497ft 130kts
08-Feb-21 01:50 34.483817 -113.616944 268 8497ft 130kts
08-Feb-21 01:51 34.477393 -113.664997 268 8498ft 130kts
08-Feb-21 01:52 34.470893 -113.713479 268 8498ft 130kts
08-Feb-21 01:53 34.464398 -113.761757 268 8498ft 130kts
08-Feb-21 01:54 34.457500 -113.812881 268 8498ft 130kts
08-Feb-21 01:55 34.450747 -113.862766 268 8498ft 130kts
08-Feb-21 01:56 34.444273 -113.910446 268 8498ft 130kts
08-Feb-21 01:57 34.437837 -113.957708 268 8498ft 130kts
08-Feb-21 01:58 34.431426 -114.004641 268 8498ft 130kts
08-Feb-21 01:59 34.424898 -114.052291 268 8498ft 130kts
08-Feb-21 02:00 34.417325 -114.100647 266 8498ft 131kts
08-Feb-21 02:01 34.409424 -114.148692 266 8498ft 131kts
08-Feb-21 02:02 34.401602 -114.196072 266 8498ft 131kts
08-Feb-21 02:03 34.393830 -114.243012 266 8498ft 131kts
08-Feb-21 02:04 34.385853 -114.291077 266 8498ft 131kts
08-Feb-21 02:05 34.377684 -114.340169 266 8498ft 131kts
08-Feb-21 02:06 34.369260 -114.390658 266 8498ft 131kts
08-Feb-21 02:07 34.360786 -114.441312 266 8498ft 131kts
08-Feb-21 02:08 34.352271 -114.492075 266 8497ft 131kts
08-Feb-21 02:09 34.343896 -114.541873 266 8497ft 131kts
08-Feb-21 02:10 34.335748 -114.590199 266 8497ft 131kts
08-Feb-21 02:11 34.327694 -114.637847 266 8497ft 131kts
08-Feb-21 02:12 34.319929 -114.683672 265 8499ft 131kts
08-Feb-21 02:13 34.312110 -114.729700 265 8499ft 131kts
08-Feb-21 02:14 34.304410 -114.774920 265 8499ft 131kts
08-Feb-21 02:15 34.296564 -114.820899 265 8499ft 131kts
08-Feb-21 02:16 34.288737 -114.866656 265 8499ft 131kts
08-Feb-21 02:17 34.280706 -114.913491 265 8499ft 131kts
08-Feb-21 02:18 34.273097 -114.957766 265 8499ft 131kts
08-Feb-21 02:19 34.265625 -115.001141 265 8499ft 131kts
08-Feb-21 02:20 34.258138 -115.044511 265 8499ft 131kts
08-Feb-21 02:21 34.250643 -115.087826 265 8499ft 131kts
08-Feb-21 02:22 34.243066 -115.131523 265 8499ft 131kts
08-Feb-21 02:23 34.235518 -115.174955 265 8499ft 131kts
08-Feb-21 02:24 34.227789 -115.219332 265 8499ft 131kts
08-Feb-21 02:26 34.220125 -115.263233 265 8499ft 131kts
08-Feb-21 02:27 34.212524 -115.306685 265 8498ft 131kts
08-Feb-21 02:28 34.204856 -115.350506 265 8498ft 131kts
08-Feb-21 02:29 34.197248 -115.394206 266 8498ft 131kts
08-Feb-21 02:30 34.189246 -115.440076 266 8498ft 131kts
08-Feb-21 02:31 34.181376 -115.485095 266 8498ft 131kts
08-Feb-21 02:32 34.173576 -115.529611 266 8498ft 131kts
08-Feb-21 02:33 34.165907 -115.573282 266 8498ft 131kts
08-Feb-21 02:34 34.158234 -115.616872 266 8498ft 131kts
08-Feb-21 02:35 34.150616 -115.660050 265 8500ft 131kts
08-Feb-21 02:36 34.142933 -115.703515 265 8500ft 132kts
08-Feb-21 02:37 34.135240 -115.746931 265 8500ft 132kts
08-Feb-21 02:38 34.127533 -115.790336 265 8500ft 132kts
08-Feb-21 02:39 34.119671 -115.833699 264 8500ft 132kts
08-Feb-21 02:40 34.111603 -115.877138 264 8500ft 132kts
08-Feb-21 02:41 34.103518 -115.920557 264 8500ft 132kts
08-Feb-21 02:41 34.096794 -115.956590 264 8500ft 132kts
08-Feb-21 02:43 34.087302 -116.007346 264 8500ft 132kts
08-Feb-21 02:44 34.079201 -116.050570 264 8500ft 132kts
08-Feb-21 02:44 34.072402 -116.086776 264 8500ft 132kts
08-Feb-21 02:46 34.062887 -116.137344 264 8499ft 132kts
08-Feb-21 02:46 34.056074 -116.173483 264 8499ft 132kts
08-Feb-21 02:47 34.047879 -116.216869 264 8499ft 132kts
08-Feb-21 02:48 34.039684 -116.260160 264 8499ft 132kts
08-Feb-21 02:49 34.031478 -116.303421 264 8499ft 132kts
08-Feb-21 02:50 34.023274 -116.346581 264 8499ft 132kts
08-Feb-21 02:51 34.015047 -116.389780 264 8499ft 132kts
08-Feb-21 02:52 34.006770 -116.433153 264 8499ft 132kts
08-Feb-21 02:53 33.998514 -116.476328 264 8499ft 132kts
08-Feb-21 02:54 33.990203 -116.519712 264 8499ft 132kts
08-Feb-21 02:55 33.981892 -116.562986 264 8499ft 132kts
08-Feb-21 02:56 33.973562 -116.606289 264 8499ft 132kts
08-Feb-21 02:57 33.965237 -116.649472 264 8499ft 132kts
08-Feb-21 02:58 33.957143 -116.692822 265 8501ft 132kts
08-Feb-21 02:59 33.948946 -116.736233 266 8500ft 132kts
08-Feb-21 03:00 33.946825 -116.783291 273 7953ft 151kts
08-Feb-21 03:01 33.945099 -116.833929 273 7379ft 150kts
08-Feb-21 03:02 33.943402 -116.884143 273 6822ft 150kts
08-Feb-21 03:03 33.941687 -116.934289 273 6273ft 149kts
08-Feb-21 03:04 33.950718 -116.980050 305 5718ft 141kts
08-Feb-21 03:05 33.972479 -117.019176 307 5184ft 140kts
08-Feb-21 03:06 33.994300 -117.057590 307 4660ft 139kts
08-Feb-21 03:07 34.016349 -117.096422 307 4135ft 139kts
08-Feb-21 03:08 34.038173 -117.134899 307 3619ft 139kts
08-Feb-21 03:09 34.059881 -117.173212 308 3110ft 138kts
08-Feb-21 03:10 34.051456 -117.218585 252 2694ft 137kts
08-Feb-21 03:11 34.041299 -117.259165 289 2462ft 101kts
08-Feb-21 03:12 34.057346 -117.273111 338 2287ft 66kts
08-Feb-21 03:13 34.075340 -117.277646 5 2105ft 69kts
08-Feb-21 03:14 34.088016 -117.257597 51 1416ft 82kts
08-Feb-21 03:15 34.094397 -117.237895 68 1108ft 35kts
08-Feb-21 03:16 34.098267 -117.227530 42 1135ft 21kts
08-Feb-21 03:17 34.100920 -117.225079 39 1143ft 11kts
08-Feb-21 03:18 34.102064 -117.224396 252 1145ft 0kts
08-Feb-21 03:19 34.102064 -117.224396 252 1145ft 0kts
08-Feb-21 03:20 34.102064 -117.224396 252 1145ft 0kts

Navigation Log

Ident Type
Flight plan parsing failed, navigation log unavailable